Time;durP1;ratioP1;P1;durP2;ratioP2;P2;SDS_P1;SDS_P2;PMS_P1;PMS_P2;Temp;Humidity;BMP_temperature;BMP_pressure;BME280_temperature;BME280_humidity;BME280_pressure;Samples;Min_cycle;Max_cycle;Signal;HPM_P1;HPM_P2
2021/08/20 00:01:38;;;;;;;31.42;17.67;;;;;;;15.73;79.71;101505.44;4927641;29;20573;-88
2021/08/20 00:04:06;;;;;;;27.02;17.35;;;;;;;15.79;79.61;101505.03;4970315;29;20075;-89
2021/08/20 00:06:33;;;;;;;26.55;16.17;;;;;;;15.80;79.42;101510.28;4974325;29;20030;-89
2021/08/20 00:08:58;;;;;;;26.70;16.48;;;;;;;15.76;79.57;101500.78;4973920;29;20111;-89
2021/08/20 00:11:24;;;;;;;26.55;16.13;;;;;;;15.83;79.29;101509.19;4973312;29;20041;-88
2021/08/20 00:13:50;;;;;;;26.42;15.98;;;;;;;15.73;79.30;101506.31;4973144;29;20027;-89
2021/08/20 00:16:15;;;;;;;26.55;15.98;;;;;;;15.86;79.09;101505.50;4969190;29;20031;-89
2021/08/20 00:18:41;;;;;;;26.08;15.90;;;;;;;15.85;79.21;101501.09;4968982;29;20410;-89
2021/08/20 00:21:09;;;;;;;24.15;14.77;;;;;;;15.85;79.05;101493.97;4966313;29;20039;-90
2021/08/20 00:23:36;;;;;;;24.42;15.13;;;;;;;15.81;79.25;101495.13;4951513;29;20031;-91
2021/08/20 00:26:03;;;;;;;23.17;15.50;;;;;;;15.84;79.06;101499.41;4966581;28;20033;-90
2021/08/20 00:28:30;;;;;;;23.00;14.20;;;;;;;15.88;78.75;101498.25;4966531;28;20043;-89
2021/08/20 00:30:59;;;;;;;27.35;15.65;;;;;;;15.75;79.41;101498.19;4933625;29;20035;-90
2021/08/20 00:33:25;;;;;;;23.15;15.50;;;;;;;15.76;79.37;101502.56;4964632;29;20051;-92
2021/08/20 00:35:54;;;;;;;26.35;15.70;;;;;;;15.75;79.28;101503.53;4975932;23;20055;-91
2021/08/20 00:38:21;;;;;;;30.15;17.02;;;;;;;15.70;79.09;101494.00;4959599;29;20027;-88
2021/08/20 00:40:49;;;;;;;28.70;15.98;;;;;;;15.69;79.25;101488.75;4972927;28;20035;-90
2021/08/20 00:43:15;;;;;;;24.45;15.30;;;;;;;15.86;78.69;101493.00;4955628;29;20071;-91
2021/08/20 00:45:50;;;;;;;24.42;16.65;;;;;;;15.82;78.96;101495.03;4954376;29;20090;-88
2021/08/20 00:48:16;;;;;;;27.45;16.25;;;;;;;15.98;78.25;101495.88;4948893;29;20056;-88
2021/08/20 00:50:41;;;;;;;31.30;16.52;;;;;;;16.03;78.11;101493.75;4962675;29;20042;-91
2021/08/20 00:53:07;;;;;;;27.55;16.83;;;;;;;16.06;78.15;101491.75;4929011;29;20042;-92
2021/08/20 00:55:32;;;;;;;28.50;17.77;;;;;;;16.06;78.13;101483.75;4944671;29;20090;-92
2021/08/20 00:57:58;;;;;;;30.75;18.33;;;;;;;16.10;78.10;101491.56;4928898;29;20036;-90
2021/08/20 01:00:26;;;;;;;25.52;17.48;;;;;;;16.11;78.18;101490.59;4962357;29;20123;-90
2021/08/20 01:02:53;;;;;;;29.15;17.20;;;;;;;16.16;77.92;101497.31;4945311;29;20028;-91
2021/08/20 01:05:19;;;;;;;29.42;18.13;;;;;;;16.17;77.94;101490.16;4962457;29;20023;-90
2021/08/20 01:07:45;;;;;;;29.13;18.27;;;;;;;16.21;77.80;101493.50;4944667;29;20082;-89
2021/08/20 01:10:12;;;;;;;29.27;18.02;;;;;;;16.06;78.37;101494.41;4962094;29;20046;-89
2021/08/20 01:12:41;;;;;;;33.75;19.55;;;;;;;16.18;78.01;101487.41;4945983;29;20034;-90
2021/08/20 01:15:06;;;;;;;32.45;18.67;;;;;;;16.19;78.13;101485.59;4933765;29;20121;-90
2021/08/20 01:17:32;;;;;;;28.95;18.38;;;;;;;16.12;78.57;101490.47;4952335;29;20083;-91
2021/08/20 01:20:00;;;;;;;35.20;19.38;;;;;;;16.06;79.01;101498.91;4969041;29;20039;-89
2021/08/20 01:22:25;;;;;;;32.88;19.48;;;;;;;16.18;78.96;101483.88;4966882;29;20023;-90
2021/08/20 01:25:01;;;;;;;33.00;19.00;;;;;;;16.24;78.58;101487.97;4966915;29;20431;-88
2021/08/20 01:27:30;;;;;;;33.88;19.45;;;;;;;16.13;79.58;101483.34;4933141;29;20023;-88
2021/08/20 01:29:57;;;;;;;37.08;21.52;;;;;;;16.11;79.86;101474.56;4965296;29;20034;-92
2021/08/20 01:32:23;;;;;;;40.33;21.90;;;;;;;15.99;80.42;101474.44;4949305;29;20043;-90
2021/08/20 01:34:49;;;;;;;41.40;21.75;;;;;;;15.96;80.81;101474.59;4951959;28;20057;-90
2021/08/20 01:37:17;;;;;;;36.00;18.40;;;;;;;16.20;80.80;101460.63;4984695;28;20046;-92
2021/08/20 01:39:43;;;;;;;27.05;15.05;;;;;;;16.25;81.10;101466.50;4975324;28;20066;-89
2021/08/20 01:42:11;;;;;;;28.05;17.27;;;;;;;16.26;80.57;101454.88;4976264;28;20026;-90
2021/08/20 01:44:37;;;;;;;21.20;13.55;;;;;;;16.38;80.18;101455.00;4960889;28;20047;-90
2021/08/20 01:47:04;;;;;;;23.40;14.18;;;;;;;16.34;80.50;101456.16;4991705;28;20069;-88
2021/08/20 01:49:31;;;;;;;27.02;16.15;;;;;;;16.36;80.25;101457.78;4994922;28;20023;-89
2021/08/20 01:51:56;;;;;;;27.08;15.65;;;;;;;16.26;80.69;101459.34;4980221;28;20035;-88
2021/08/20 01:54:22;;;;;;;26.98;16.58;;;;;;;16.33;80.41;101459.78;4980786;28;20023;-89
2021/08/20 01:56:49;;;;;;;28.58;16.60;;;;;;;16.54;79.68;101462.78;4978882;28;20030;-89
2021/08/20 01:59:14;;;;;;;31.70;17.00;;;;;;;16.58;79.71;101461.66;4982980;28;20038;-88
2021/08/20 02:01:40;;;;;;;34.67;18.88;;;;;;;16.59;79.66;101462.47;5000909;28;20011;-86
2021/08/20 02:04:05;;;;;;;37.88;19.50;;;;;;;16.61;79.72;101464.09;4985069;28;20039;-88
2021/08/20 02:06:33;;;;;;;38.47;19.17;;;;;;;16.60;80.31;101453.53;4985451;28;20095;-88
2021/08/20 02:08:59;;;;;;;39.03;19.83;;;;;;;16.63;80.33;101456.00;4985219;28;20010;-89
2021/08/20 02:11:24;;;;;;;40.00;20.77;;;;;;;16.71;80.39;101452.78;5001114;28;20110;-91
2021/08/20 02:13:51;;;;;;;42.38;22.02;;;;;;;16.56;80.76;101461.75;5002412;28;20043;-93
2021/08/20 02:16:16;;;;;;;40.63;21.98;;;;;;;16.52;80.90;101460.22;4985205;28;20039;-94
2021/08/20 02:18:42;;;;;;;38.90;21.70;;;;;;;16.68;80.36;101459.16;4999553;28;20073;-91
2021/08/20 02:21:10;;;;;;;40.53;21.67;;;;;;;16.65;80.40;101460.25;4990586;28;20027;-91
2021/08/20 02:23:37;;;;;;;44.47;22.80;;;;;;;16.69;80.54;101461.72;4983054;28;20015;-90
2021/08/20 02:26:02;;;;;;;41.60;21.27;;;;;;;16.80;80.18;101463.66;5001455;28;20018;-90
2021/08/20 02:28:28;;;;;;;45.30;22.90;;;;;;;16.71;80.60;101463.47;5002174;28;20075;-90
2021/08/20 02:30:53;;;;;;;47.35;23.33;;;;;;;16.77;80.26;101455.88;5001016;28;20102;-90
2021/08/20 02:33:20;;;;;;;44.10;22.50;;;;;;;16.70;80.59;101459.94;4979365;28;20034;-90
2021/08/20 02:35:46;;;;;;;45.47;22.55;;;;;;;16.67;80.54;101454.81;4953935;28;20054;-92
2021/08/20 02:38:11;;;;;;;47.92;23.38;;;;;;;16.59;80.72;101460.69;4953690;28;20051;-91
2021/08/20 02:40:37;;;;;;;43.38;22.33;;;;;;;16.51;81.06;101457.66;4967925;28;20031;-94
2021/08/20 02:43:03;;;;;;;49.35;22.95;;;;;;;16.57;80.96;101457.25;4967628;28;20101;-90
2021/08/20 02:45:29;;;;;;;53.70;24.58;;;;;;;16.51;80.83;101452.31;4984016;28;20039;-90
2021/08/20 02:47:55;;;;;;;46.75;23.73;;;;;;;16.45;80.90;101450.94;4951849;28;20057;-92
2021/08/20 02:50:22;;;;;;;53.42;24.13;;;;;;;16.39;81.31;101444.22;4984593;28;20022;-91
2021/08/20 02:52:51;;;;;;;54.10;25.70;;;;;;;16.31;81.80;101438.53;4983242;28;20033;-94
2021/08/20 02:55:16;;;;;;;59.65;25.88;;;;;;;16.37;81.64;101442.59;4983462;28;20099;-91
2021/08/20 02:57:42;;;;;;;53.90;24.77;;;;;;;16.37;81.66;101448.81;4985162;28;20524;-94
2021/08/20 03:00:09;;;;;;;58.88;25.77;;;;;;;16.39;81.81;101446.88;4968239;28;20053;-91
2021/08/20 03:02:35;;;;;;;62.47;25.55;;;;;;;16.37;81.90;101442.59;4985135;28;20038;-93
2021/08/20 03:05:01;;;;;;;56.80;25.83;;;;;;;16.50;81.59;101447.97;4984513;28;20077;-95
2021/08/20 03:07:26;;;;;;;52.67;24.85;;;;;;;16.54;81.37;101450.31;4967874;28;20039;-94
2021/08/20 03:09:53;;;;;;;53.22;25.23;;;;;;;16.55;81.26;101451.19;4967725;28;20023;-90
2021/08/20 03:12:22;;;;;;;58.15;26.08;;;;;;;16.53;81.34;101445.94;4984168;28;20042;-95
2021/08/20 03:14:51;;;;;;;58.13;26.38;;;;;;;16.57;81.40;101443.91;4984174;28;20022;-92
2021/08/20 03:17:17;;;;;;;51.20;24.50;;;;;;;16.54;81.59;101444.09;4985061;28;20022;-94
2021/08/20 03:19:44;;;;;;;53.30;24.45;;;;;;;16.64;81.20;101439.00;4985468;28;20069;-90
2021/08/20 03:22:09;;;;;;;54.08;24.02;;;;;;;16.64;81.40;101444.34;4983820;28;20053;-92
2021/08/20 03:24:36;;;;;;;56.60;24.13;;;;;;;16.66;82.04;101447.75;4967993;28;20094;-91
2021/08/20 03:27:03;;;;;;;52.58;24.20;;;;;;;16.65;81.52;101443.38;4952584;28;20035;-94
2021/08/20 03:29:30;;;;;;;49.38;24.45;;;;;;;16.64;81.37;101447.00;4986505;28;20049;-93
2021/08/20 03:32:00;;;;;;;52.00;24.17;;;;;;;16.61;81.53;101453.41;4990796;28;20039;-90
2021/08/20 03:34:26;;;;;;;58.80;24.95;;;;;;;16.65;81.43;101454.91;4976638;28;20041;-90
2021/08/20 03:36:56;;;;;;;51.10;25.02;;;;;;;16.71;81.18;101448.28;4960128;28;20035;-91
2021/08/20 03:39:24;;;;;;;52.03;24.38;;;;;;;16.68;81.33;101453.81;4976255;28;20030;-94
2021/08/20 03:41:50;;;;;;;51.20;24.08;;;;;;;16.67;81.52;101446.78;4943501;28;20034;-91
2021/08/20 03:44:18;;;;;;;50.35;23.45;;;;;;;16.80;81.43;101442.28;4983899;28;20043;-95
2021/08/20 03:46:45;;;;;;;53.17;24.10;;;;;;;16.79;81.30;101440.59;4985680;28;20039;-91
2021/08/20 03:49:14;;;;;;;52.10;23.98;;;;;;;16.82;81.26;101442.19;4971830;28;20050;-91
2021/08/20 03:51:53;;;;;;;54.60;23.48;;;;;;;16.85;81.12;101444.63;4991576;28;20031;-93
2021/08/20 03:54:19;;;;;;;57.63;25.33;;;;;;;16.83;81.68;101441.25;4973370;28;20061;-92
2021/08/20 03:56:47;;;;;;;52.53;23.02;;;;;;;16.81;81.60;101438.69;4969503;28;20027;-93
2021/08/20 03:59:24;;;;;;;56.70;23.85;;;;;;;16.89;81.49;101442.63;4960397;28;20031;-89
2021/08/20 04:01:52;;;;;;;53.97;23.98;;;;;;;16.92;81.37;101450.41;4996676;28;20055;-89
2021/08/20 04:04:17;;;;;;;48.00;22.10;;;;;;;16.97;81.44;101450.94;4996282;28;20023;-89
2021/08/20 04:06:43;;;;;;;48.25;22.80;;;;;;;16.98;81.37;101444.63;4963317;28;20045;-93
2021/08/20 04:09:09;;;;;;;53.17;23.50;;;;;;;17.00;81.13;101456.06;4995620;28;20007;-88
2021/08/20 04:11:34;;;;;;;46.22;22.90;;;;;;;17.03;81.20;101457.66;4983461;28;20061;-89
2021/08/20 04:14:08;;;;;;;47.55;23.15;;;;;;;16.94;81.39;101460.03;4983655;28;20086;-88
2021/08/20 04:16:53;;;;;;;53.88;24.23;;;;;;;17.03;81.06;101455.88;4999913;28;20023;-86
2021/08/20 04:19:19;;;;;;;48.60;22.08;;;;;;;17.10;80.98;101466.16;4999526;28;20070;-89
2021/08/20 04:21:53;;;;;;;50.22;22.80;;;;;;;17.01;81.29;101457.78;4994330;28;20034;-89
2021/08/20 04:24:19;;;;;;;49.15;22.25;;;;;;;16.87;81.97;101469.44;4997124;28;20031;-88
2021/08/20 04:26:50;;;;;;;47.35;21.60;;;;;;;16.92;82.06;101459.28;4983558;28;20027;-88
2021/08/20 04:29:18;;;;;;;53.25;23.27;;;;;;;16.88;82.38;101465.78;4984238;28;20019;-86
2021/08/20 04:31:49;;;;;;;51.87;23.43;;;;;;;16.87;82.69;101468.56;4996917;28;20043;-89
2021/08/20 04:34:18;;;;;;;51.58;22.23;;;;;;;16.93;82.41;101468.13;5067131;23;20031;-86
2021/08/20 04:36:43;;;;;;;53.10;22.48;;;;;;;16.99;82.29;101467.72;4939175;29;20509;-87
2021/08/20 04:39:09;;;;;;;50.63;22.67;;;;;;;16.99;82.33;101466.88;4974947;29;20036;-87
2021/08/20 04:41:36;;;;;;;57.78;22.60;;;;;;;16.96;82.63;101467.91;4960690;29;20035;-88
2021/08/20 04:44:04;;;;;;;48.65;20.58;;;;;;;16.99;83.14;101467.72;4961182;29;20063;-87
2021/08/20 04:46:29;;;;;;;51.55;20.65;;;;;;;17.07;82.84;101467.16;4962361;29;20050;-87
2021/08/20 04:48:55;;;;;;;56.08;20.95;;;;;;;17.13;82.67;101471.28;4959621;29;20039;-86
2021/08/20 04:51:22;;;;;;;51.28;20.75;;;;;;;17.05;82.79;101475.28;4959823;29;20086;-86
2021/08/20 04:53:49;;;;;;;52.63;19.95;;;;;;;17.17;82.30;101481.63;4974806;29;20027;-88
2021/08/20 04:56:14;;;;;;;51.03;20.67;;;;;;;17.05;83.17;101475.28;4976291;29;20031;-87
2021/08/20 04:58:40;;;;;;;52.08;20.20;;;;;;;17.28;82.26;101483.53;4955667;29;20525;-86
2021/08/20 05:01:05;;;;;;;49.25;19.45;;;;;;;17.29;82.30;101482.56;4958508;29;20031;-87
2021/08/20 05:03:31;;;;;;;49.63;19.48;;;;;;;17.27;82.21;101487.16;4961658;28;20019;-86
2021/08/20 05:05:58;;;;;;;46.85;21.10;;;;;;;17.13;82.90;101484.63;4961878;29;20038;-87
2021/08/20 05:08:24;;;;;;;50.22;19.88;;;;;;;17.04;83.32;101492.28;4961617;29;20082;-88
2021/08/20 05:10:49;;;;;;;48.90;20.65;;;;;;;17.10;83.24;101490.19;4946301;29;20039;-87
2021/08/20 05:13:15;;;;;;;45.95;19.65;;;;;;;17.18;82.93;101493.16;4961473;28;20015;-87
2021/08/20 05:15:40;;;;;;;47.67;19.80;;;;;;;17.27;82.57;101489.81;4978192;28;20038;-88
2021/08/20 05:18:06;;;;;;;49.92;19.70;;;;;;;17.36;82.23;101499.03;4978883;28;20036;-87
2021/08/20 05:20:31;;;;;;;41.85;18.48;;;;;;;17.45;82.22;101505.50;4961444;29;20025;-88
2021/08/20 05:22:57;;;;;;;44.67;17.98;;;;;;;17.33;82.29;101509.94;4977547;28;20023;-87
2021/08/20 05:25:23;;;;;;;42.08;18.63;;;;;;;17.49;82.17;101512.38;4973940;28;20019;-86
2021/08/20 05:27:49;;;;;;;45.00;17.92;;;;;;;17.46;82.38;101509.91;4960095;29;20039;-86
2021/08/20 05:30:16;;;;;;;42.88;17.90;;;;;;;17.55;82.04;101516.41;4976133;28;20025;-87
2021/08/20 05:32:41;;;;;;;42.75;17.52;;;;;;;17.65;81.62;101514.78;4956072;29;20047;-90
2021/08/20 05:35:08;;;;;;;39.05;17.38;;;;;;;17.69;81.59;101512.72;4959447;29;20103;-86
2021/08/20 05:37:33;;;;;;;38.58;17.73;;;;;;;17.71;81.45;101516.16;4978013;28;20036;-87
2021/08/20 05:39:59;;;;;;;36.53;17.95;;;;;;;17.68;81.83;101511.03;4976251;29;20075;-87
2021/08/20 05:42:24;;;;;;;44.13;17.25;;;;;;;17.68;81.60;101513.72;4976242;29;20090;-86
2021/08/20 05:44:51;;;;;;;42.22;17.48;;;;;;;17.69;81.48;101512.72;4971887;29;20082;-87
2021/08/20 05:47:18;;;;;;;40.33;17.42;;;;;;;17.65;82.02;101519.28;4976720;28;20086;-86
2021/08/20 05:49:43;;;;;;;41.85;16.30;;;;;;;17.71;81.95;101515.28;4977083;29;20039;-87
2021/08/20 05:52:09;;;;;;;39.10;16.75;;;;;;;17.78;82.09;101514.75;4977065;29;20038;-87
2021/08/20 05:54:35;;;;;;;39.25;16.25;;;;;;;17.91;82.10;101516.50;4977681;28;20086;-86
2021/08/20 05:57:01;;;;;;;37.28;16.15;;;;;;;17.99;81.97;101516.81;4975911;29;20047;-87
2021/08/20 05:59:26;;;;;;;34.58;14.82;;;;;;;18.11;81.59;101524.88;4976545;29;20019;-86
2021/08/20 06:01:52;;;;;;;26.63;14.27;;;;;;;18.28;81.44;101529.00;4976768;28;20043;-87
2021/08/20 06:04:17;;;;;;;31.13;15.48;;;;;;;18.41;81.07;101523.56;4976958;28;20091;-89
2021/08/20 06:06:43;;;;;;;28.13;13.48;;;;;;;18.37;81.18;101517.59;4960804;28;20087;-88
2021/08/20 06:09:08;;;;;;;26.13;13.50;;;;;;;18.51;80.85;101539.81;4960780;29;20102;-88
2021/08/20 06:11:34;;;;;;;24.13;12.07;;;;;;;18.65;80.71;101531.53;4977165;28;20027;-88
2021/08/20 06:13:59;;;;;;;27.52;12.93;;;;;;;18.79;80.32;101527.81;4960428;29;20097;-87
2021/08/20 06:16:25;;;;;;;25.25;11.85;;;;;;;18.79;80.16;101526.97;4960578;29;20062;-87
2021/08/20 06:18:50;;;;;;;24.88;11.13;;;;;;;18.79;80.03;101538.53;4977769;28;20034;-88
2021/08/20 06:21:18;;;;;;;22.00;11.35;;;;;;;18.83;80.07;101538.31;4944501;29;20086;-87
2021/08/20 06:23:44;;;;;;;26.70;11.75;;;;;;;18.84;80.26;101546.22;4956663;29;20105;-87
2021/08/20 06:26:09;;;;;;;19.98;10.90;;;;;;;18.80;80.51;101540.25;4961482;29;20015;-88
2021/08/20 06:28:35;;;;;;;19.92;11.20;;;;;;;18.70;80.93;101541.94;4960880;29;20026;-86
2021/08/20 06:31:04;;;;;;;22.77;10.90;;;;;;;18.72;80.55;101542.66;4976589;29;20034;-86
2021/08/20 06:33:33;;;;;;;22.25;11.80;;;;;;;19.04;79.92;101544.69;4959947;29;20055;-85
2021/08/20 06:35:58;;;;;;;19.38;11.50;;;;;;;19.20;79.12;101537.28;4946470;29;20048;-85
2021/08/20 06:38:25;;;;;;;21.90;11.88;;;;;;;19.12;79.48;101546.78;4975896;29;20039;-86
2021/08/20 06:40:59;;;;;;;24.42;12.60;;;;;;;19.26;78.88;101547.50;4956118;29;20055;-86
2021/08/20 06:43:24;;;;;;;24.73;13.05;;;;;;;19.11;79.30;101552.25;4959153;29;20031;-86
2021/08/20 06:45:50;;;;;;;24.05;13.45;;;;;;;19.03;78.96;101555.50;4959101;29;20034;-86
2021/08/20 06:48:17;;;;;;;22.45;13.52;;;;;;;19.15;79.10;101553.72;4960107;29;20043;-86
2021/08/20 06:50:44;;;;;;;26.40;15.25;;;;;;;19.13;79.20;101552.97;4964311;29;20036;-86
2021/08/20 06:53:10;;;;;;;25.67;14.30;;;;;;;19.38;78.30;101551.03;4947833;29;20035;-89
2021/08/20 06:55:36;;;;;;;25.92;14.32;;;;;;;19.65;77.94;101555.16;4955913;29;20019;-84
2021/08/20 06:58:02;;;;;;;28.30;14.45;;;;;;;19.90;77.13;101550.47;4974118;28;20447;-85
2021/08/20 07:00:27;;;;;;;22.77;13.93;;;;;;;19.90;76.56;101555.84;4955438;29;20071;-83
2021/08/20 07:02:54;;;;;;;23.75;13.55;;;;;;;20.32;75.12;101552.44;4936875;29;20038;-85
2021/08/20 07:05:19;;;;;;;18.90;12.15;;;;;;;20.97;73.24;101553.34;4939395;29;20086;-86
2021/08/20 07:07:45;;;;;;;21.15;12.40;;;;;;;20.76;72.94;101549.66;4953334;29;20031;-86
2021/08/20 07:10:12;;;;;;;18.80;12.55;;;;;;;20.11;74.89;101564.03;4935970;29;20031;-88
2021/08/20 07:12:38;;;;;;;18.27;12.60;;;;;;;19.98;75.58;101572.19;4940165;29;20012;-87
2021/08/20 07:15:06;;;;;;;21.40;12.80;;;;;;;20.01;75.56;101565.72;4926979;29;20039;-87
2021/08/20 07:17:31;;;;;;;21.15;13.27;;;;;;;19.84;76.10;101567.94;4942061;29;20142;-87
2021/08/20 07:19:57;;;;;;;25.23;14.05;;;;;;;19.76;76.29;101573.09;4940098;29;20055;-87
2021/08/20 07:22:23;;;;;;;22.90;13.27;;;;;;;19.63;77.07;101576.75;4913653;29;20091;-88
2021/08/20 07:24:48;;;;;;;19.48;13.05;;;;;;;19.62;77.35;101575.06;4917955;29;20050;-85
2021/08/20 07:27:13;;;;;;;22.33;12.98;;;;;;;19.47;77.91;101579.81;4941320;29;20095;-86
2021/08/20 07:29:39;;;;;;;21.35;12.82;;;;;;;19.39;77.72;101583.09;4957966;29;20087;-86
2021/08/20 07:32:06;;;;;;;22.67;12.55;;;;;;;19.01;79.49;101579.75;4909216;29;20071;-84
2021/08/20 07:34:31;;;;;;;15.95;10.80;;;;;;;19.53;77.91;101575.78;4932691;29;20044;-85
2021/08/20 07:36:57;;;;;;;15.05;10.10;;;;;;;19.77;77.12;101581.00;4945050;29;20107;-86
2021/08/20 07:39:26;;;;;;;17.40;8.75;;;;;;;19.95;76.35;101576.94;4931214;29;20055;-84
2021/08/20 07:41:51;;;;;;;11.77;7.47;;;;;;;19.89;76.00;101572.94;4926455;29;20027;-88
2021/08/20 07:44:17;;;;;;;10.90;8.32;;;;;;;20.20;74.44;101583.88;4927509;29;20031;-88
2021/08/20 07:46:43;;;;;;;10.85;7.57;;;;;;;20.25;73.98;101572.75;4946925;29;20039;-88
2021/08/20 07:49:08;;;;;;;12.02;7.18;;;;;;;20.91;72.58;101578.94;4932324;29;20038;-88
2021/08/20 07:51:34;;;;;;;9.85;7.93;;;;;;;21.26;70.98;101576.84;4928357;29;20050;-87
2021/08/20 07:54:00;;;;;;;13.70;7.85;;;;;;;21.18;71.43;101584.75;4928857;29;20015;-88
2021/08/20 07:56:25;;;;;;;11.05;7.53;;;;;;;20.97;71.62;101581.09;4943081;29;20040;-86
2021/08/20 07:58:51;;;;;;;10.07;6.97;;;;;;;20.98;70.69;101576.56;4949083;29;20056;-86
2021/08/20 08:01:17;;;;;;;11.07;6.63;;;;;;;21.01;70.86;101585.22;4930524;29;20060;-88
2021/08/20 08:03:46;;;;;;;12.07;7.38;;;;;;;21.26;70.21;101585.78;4923277;29;20036;-87
2021/08/20 08:06:12;;;;;;;9.75;7.15;;;;;;;21.32;70.02;101591.63;4924871;29;20049;-86
2021/08/20 08:08:41;;;;;;;9.63;6.40;;;;;;;21.47;69.14;101590.28;4939853;29;20032;-88
2021/08/20 08:11:08;;;;;;;10.60;5.97;;;;;;;21.25;69.44;101594.84;4940197;29;20031;-88
2021/08/20 08:13:34;;;;;;;7.78;5.45;;;;;;;21.49;68.68;101593.69;4955164;29;20043;-85
2021/08/20 08:16:00;;;;;;;11.15;6.00;;;;;;;21.17;69.03;101594.66;4921027;29;20024;-86
2021/08/20 08:18:26;;;;;;;8.40;5.32;;;;;;;21.14;68.85;101600.28;4918826;29;20048;-85
2021/08/20 08:20:55;;;;;;;8.82;5.82;;;;;;;21.60;67.68;101608.03;4900884;29;20538;-87
2021/08/20 08:23:23;;;;;;;8.60;5.22;;;;;;;21.41;67.36;101612.34;4946784;29;20067;-86
2021/08/20 08:25:49;;;;;;;8.88;4.65;;;;;;;21.29;67.54;101603.47;4933589;29;20023;-86
2021/08/20 08:28:14;;;;;;;7.75;5.07;;;;;;;21.27;68.16;101606.28;4918800;29;20108;-86
2021/08/20 08:30:40;;;;;;;7.35;5.10;;;;;;;21.32;68.61;101610.44;4914582;29;20043;-87
2021/08/20 08:33:08;;;;;;;8.75;5.22;;;;;;;21.52;68.41;101608.69;4914271;29;20095;-86
2021/08/20 08:35:34;;;;;;;8.25;4.90;;;;;;;21.50;67.70;101619.59;4968496;23;20536;-90
2021/08/20 08:38:06;;;;;;;9.82;5.93;;;;;;;21.54;67.15;101620.19;4950585;29;20046;-92
2021/08/20 08:40:32;;;;;;;8.13;5.20;;;;;;;21.95;66.25;101625.56;4946988;29;20110;-93
2021/08/20 08:42:58;;;;;;;7.53;5.10;;;;;;;22.06;65.35;101619.22;4962076;29;20043;-89
2021/08/20 08:45:28;;;;;;;9.95;6.35;;;;;;;21.84;65.56;101631.09;4945331;29;20031;-90
2021/08/20 08:47:55;;;;;;;7.65;6.32;;;;;;;21.38;67.25;101624.22;4962714;29;20035;-93
2021/08/20 08:50:21;;;;;;;7.93;6.07;;;;;;;20.97;67.68;101620.56;4944318;29;20040;-91
2021/08/20 08:52:48;;;;;;;9.55;5.72;;;;;;;21.10;67.09;101623.91;4945517;29;20054;-93
2021/08/20 08:55:14;;;;;;;10.60;5.95;;;;;;;21.35;67.42;101623.63;4945578;29;20098;-91
2021/08/20 08:57:40;;;;;;;7.63;6.40;;;;;;;21.92;65.64;101622.31;4930612;29;20051;-91
2021/08/20 09:00:09;;;;;;;7.97;5.95;;;;;;;21.69;66.11;101626.03;4975323;29;20015;-90
2021/08/20 09:02:36;;;;;;;10.27;6.22;;;;;;;21.21;66.58;101622.13;4978359;28;20038;-92
2021/08/20 09:05:11;;;;;;;7.85;6.13;;;;;;;21.43;65.88;101623.81;4965412;29;20051;-88
2021/08/20 09:07:37;;;;;;;9.40;6.85;;;;;;;21.62;65.82;101627.59;4959358;29;20020;-87
2021/08/20 09:10:22;;;;;;;10.30;6.65;;;;;;;22.13;64.11;101624.91;4949172;29;20074;-87
2021/08/20 09:12:58;;;;;;;6.50;5.80;;;;;;;22.95;61.81;101621.13;4927686;29;20163;-91
2021/08/20 09:15:28;;;;;;;8.02;5.60;;;;;;;22.63;62.03;101626.69;4942502;29;20118;-90
2021/08/20 09:18:01;;;;;;;6.78;5.30;;;;;;;23.12;59.46;101628.47;4942349;29;20042;-91
2021/08/20 09:20:34;;;;;;;8.45;5.93;;;;;;;23.34;58.96;101621.03;4910163;29;20067;-92
2021/08/20 09:23:03;;;;;;;6.85;5.20;;;;;;;23.44;58.08;101626.41;4909542;29;20030;-93
2021/08/20 09:25:29;;;;;;;5.53;4.55;;;;;;;23.79;56.63;101633.94;4924968;29;20072;-90
2021/08/20 09:28:16;;;;;;;5.82;5.05;;;;;;;24.00;57.07;101628.28;4941945;29;20028;-91
2021/08/20 09:30:54;;;;;;;6.30;5.20;;;;;;;25.00;54.81;101627.38;4924964;29;20035;-94
2021/08/20 09:33:21;;;;;;;5.45;4.95;;;;;;;25.45;53.35;101634.59;4941983;29;20054;-90
2021/08/20 09:35:58;;;;;;;6.70;4.55;;;;;;;25.61;52.28;101640.09;4959018;28;20055;-89
2021/08/20 09:38:23;;;;;;;4.93;3.85;;;;;;;25.72;51.40;101638.97;4944834;29;20039;-90
2021/08/20 09:40:52;;;;;;;5.38;4.32;;;;;;;26.23;50.25;101640.78;4944568;29;20035;-90
2021/08/20 09:43:23;;;;;;;5.88;3.75;;;;;;;25.92;50.65;101646.81;4960844;29;20123;-90
2021/08/20 09:45:55;;;;;;;;;;;;;;;26.32;49.98;101644.41;4930598;29;20544;-88
2021/08/20 09:48:41;;;;;;;5.30;3.63;;;;;;;26.09;50.43;101652.31;4965437;29;19914;-87
2021/08/20 09:51:08;;;;;;;4.18;3.50;;;;;;;25.01;53.01;101642.59;4949937;29;20031;-92
2021/08/20 09:53:33;;;;;;;6.00;3.90;;;;;;;23.84;56.00;101664.03;4948451;29;20424;-89
2021/08/20 09:56:01;;;;;;;4.30;3.40;;;;;;;24.23;55.67;101669.25;4945052;29;20510;-90
2021/08/20 09:58:31;;;;;;;5.78;4.10;;;;;;;24.37;54.10;101654.38;4962148;29;20386;-89
2021/08/20 10:00:56;;;;;;;4.15;3.40;;;;;;;25.13;53.30;101658.59;4947469;29;20462;-90
2021/08/20 10:03:21;;;;;;;4.55;2.92;;;;;;;24.63;53.56;101661.69;4967461;29;20029;-88
2021/08/20 10:05:50;;;;;;;4.75;3.28;;;;;;;25.21;52.28;101665.91;4929056;29;20035;-90
2021/08/20 10:08:15;;;;;;;3.83;2.97;;;;;;;26.22;49.54;101660.78;4914391;29;20043;-89
2021/08/20 10:10:42;;;;;;;3.55;2.80;;;;;;;25.34;51.67;101666.31;4946955;29;20372;-90
2021/08/20 10:13:08;;;;;;;4.32;2.60;;;;;;;26.33;49.32;101662.38;4930079;29;20038;-88
2021/08/20 10:15:35;;;;;;;4.30;2.63;;;;;;;26.06;49.15;101667.00;4916803;29;20019;-89
2021/08/20 10:18:05;;;;;;;4.28;2.30;;;;;;;24.82;52.65;101667.13;4950995;29;20052;-89
2021/08/20 10:20:35;;;;;;;2.58;2.20;;;;;;;24.31;53.67;101676.59;4951855;29;20058;-87
2021/08/20 10:23:02;;;;;;;4.70;2.40;;;;;;;24.08;54.92;101677.00;4941104;29;20047;-87
2021/08/20 10:25:31;;;;;;;3.70;2.67;;;;;;;23.66;55.86;101661.28;4943046;29;20103;-87
2021/08/20 10:27:59;;;;;;;2.80;2.55;;;;;;;23.35;57.01;101673.13;4959817;29;20030;-87
2021/08/20 10:30:26;;;;;;;4.03;2.70;;;;;;;24.15;55.74;101671.88;4926511;29;20039;-92
2021/08/20 10:33:01;;;;;;;4.47;2.33;;;;;;;24.41;54.30;101670.28;4941476;29;20474;-92
2021/08/20 10:36:00;;;;;;;3.20;2.40;;;;;;;24.96;52.79;101673.84;4951640;28;20098;-89
2021/08/20 10:38:34;;;;;;;3.00;2.40;;;;;;;25.08;51.40;101671.72;4905383;29;20032;-89
2021/08/20 10:41:16;;;;;;;2.88;2.40;;;;;;;25.56;51.70;101676.78;4921722;29;20101;-87
2021/08/20 10:43:54;;;;;;;4.22;3.65;;;;;;;25.67;51.42;101665.69;4922813;29;20044;-88
2021/08/20 10:46:39;;;;;;;3.35;2.75;;;;;;;24.80;54.27;101671.81;4923100;29;20084;-87
2021/08/20 10:49:10;;;;;;;4.35;2.70;;;;;;;24.72;53.88;101672.59;4923098;29;20045;-88
2021/08/20 10:54:31;;;;;;;3.55;2.60;;;;;;;24.81;53.52;101681.63;4907214;29;20024;-88
2021/08/20 10:56:58;;;;;;;3.05;2.60;;;;;;;23.98;55.17;101682.44;4923033;29;20036;-87
2021/08/20 10:59:37;;;;;;;4.28;2.22;;;;;;;24.37;54.71;101685.94;4870883;29;20028;-88
2021/08/20 11:02:19;;;;;;;3.05;2.30;;;;;;;23.80;55.35;101686.94;4915513;29;20167;-91
2021/08/20 11:05:09;;;;;;;3.30;2.10;;;;;;;23.74;55.19;101675.72;4898298;29;20048;-86
2021/08/20 11:07:41;;;;;;;4.32;2.47;;;;;;;24.15;54.25;101688.06;4897618;29;20052;-86
2021/08/20 11:10:09;;;;;;;2.83;2.28;;;;;;;24.11;54.72;101687.50;4896794;29;20045;-84
2021/08/20 11:12:47;;;;;;;3.33;2.60;;;;;;;23.95;56.02;101688.16;4895479;29;20097;-86
2021/08/20 11:15:17;;;;;;;6.03;2.70;;;;;;;23.93;55.44;101694.69;4920920;29;20056;-89
2021/08/20 11:18:02;;;;;;;5.22;2.50;;;;;;;23.47;56.98;101682.78;4933666;29;20051;-90
2021/08/20 11:20:50;;;;;;;6.45;3.17;;;;;;;23.59;57.11;101691.56;4933304;29;20039;-94